Agency, Iowa
Current Conditions -  °F | °C
As of 1:53 AM on Tuesday 21 Oct 2014 (Local Time) from KOTM Reporting Station
Clear Clear  
Wind Chill:   Ceiling: Unl
Heat Index:   Visibility: 10mi
Dew Point:   Wind: 5mph
Humidity: 86%   Direction: 310°NW
Pressure: 30.05"   Gusts: NA
Location:  41°N, 92.31°W
Report Text: KOTM 210653Z AUTO 31004KT 10SM CLR 06/04 A3005 RMK AO2 SLP177 T00610039
Loading
Personal Weather Stations






























Interactive Weather Map
Tropical Storm Tracking
New forecast layout! Learn more

10-Day Weather Forecast

Advertisements
Track Severe Weather on mobile